sensor_id;sensor_type;location;lat;lon;timestamp;P1;durP1;ratioP1;P2;durP2;ratioP2
29344;SDS011;16339;48.748;2.222;2023-05-08T00:00:11;21.80;;;14.88;;
29344;SDS011;16339;48.748;2.222;2023-05-08T00:02:40;22.92;;;14.82;;
29344;SDS011;16339;48.748;2.222;2023-05-08T00:05:09;21.33;;;14.13;;
29344;SDS011;16339;48.748;2.222;2023-05-08T00:07:40;22.15;;;14.60;;
29344;SDS011;16339;48.748;2.222;2023-05-08T00:10:09;23.65;;;14.55;;
29344;SDS011;16339;48.748;2.222;2023-05-08T00:12:38;23.27;;;14.50;;
29344;SDS011;16339;48.748;2.222;2023-05-08T00:15:08;24.15;;;13.95;;
29344;SDS011;16339;48.748;2.222;2023-05-08T00:17:37;23.95;;;13.85;;
29344;SDS011;16339;48.748;2.222;2023-05-08T00:20:06;20.75;;;13.77;;
29344;SDS011;16339;48.748;2.222;2023-05-08T00:22:35;24.42;;;13.27;;
29344;SDS011;16339;48.748;2.222;2023-05-08T00:25:07;23.63;;;13.82;;
29344;SDS011;16339;48.748;2.222;2023-05-08T00:27:36;26.45;;;13.00;;
29344;SDS011;16339;48.748;2.222;2023-05-08T00:30:05;22.02;;;13.20;;
29344;SDS011;16339;48.748;2.222;2023-05-08T00:32:35;23.40;;;13.77;;
29344;SDS011;16339;48.748;2.222;2023-05-08T00:35:04;22.35;;;13.63;;
29344;SDS011;16339;48.748;2.222;2023-05-08T00:37:33;23.55;;;13.18;;
29344;SDS011;16339;48.748;2.222;2023-05-08T00:40:02;20.35;;;13.98;;
29344;SDS011;16339;48.748;2.222;2023-05-08T00:42:33;22.30;;;14.30;;
29344;SDS011;16339;48.748;2.222;2023-05-08T00:45:02;21.45;;;13.90;;
29344;SDS011;16339;48.748;2.222;2023-05-08T00:47:31;23.60;;;13.60;;
29344;SDS011;16339;48.748;2.222;2023-05-08T00:50:01;26.15;;;14.13;;
29344;SDS011;16339;48.748;2.222;2023-05-08T00:52:30;21.33;;;13.35;;
29344;SDS011;16339;48.748;2.222;2023-05-08T00:55:00;22.88;;;13.23;;
29344;SDS011;16339;48.748;2.222;2023-05-08T00:57:33;21.65;;;12.50;;
29344;SDS011;16339;48.748;2.222;2023-05-08T01:00:03;25.58;;;12.70;;
29344;SDS011;16339;48.748;2.222;2023-05-08T01:02:33;20.88;;;12.90;;
29344;SDS011;16339;48.748;2.222;2023-05-08T01:05:02;20.98;;;13.88;;
29344;SDS011;16339;48.748;2.222;2023-05-08T01:07:32;25.05;;;13.55;;
29344;SDS011;16339;48.748;2.222;2023-05-08T01:10:03;20.15;;;13.77;;
29344;SDS011;16339;48.748;2.222;2023-05-08T01:12:45;21.60;;;13.70;;
29344;SDS011;16339;48.748;2.222;2023-05-08T01:15:20;24.30;;;12.85;;
29344;SDS011;16339;48.748;2.222;2023-05-08T01:17:56;22.30;;;13.18;;
29344;SDS011;16339;48.748;2.222;2023-05-08T01:20:34;28.27;;;13.48;;
29344;SDS011;16339;48.748;2.222;2023-05-08T01:26:13;26.33;;;14.50;;
29344;SDS011;16339;48.748;2.222;2023-05-08T01:29:15;23.67;;;14.55;;
29344;SDS011;16339;48.748;2.222;2023-05-08T01:32:13;24.15;;;14.65;;
29344;SDS011;16339;48.748;2.222;2023-05-08T01:34:49;26.38;;;13.77;;
29344;SDS011;16339;48.748;2.222;2023-05-08T01:37:27;30.35;;;14.93;;
29344;SDS011;16339;48.748;2.222;2023-05-08T01:40:08;28.23;;;14.50;;
29344;SDS011;16339;48.748;2.222;2023-05-08T01:42:43;21.30;;;13.43;;
29344;SDS011;16339;48.748;2.222;2023-05-08T01:45:16;26.05;;;14.00;;
29344;SDS011;16339;48.748;2.222;2023-05-08T01:47:58;25.33;;;15.57;;
29344;SDS011;16339;48.748;2.222;2023-05-08T01:50:32;31.15;;;13.80;;
29344;SDS011;16339;48.748;2.222;2023-05-08T01:53:04;21.75;;;14.15;;
29344;SDS011;16339;48.748;2.222;2023-05-08T01:55:37;26.08;;;14.60;;
29344;SDS011;16339;48.748;2.222;2023-05-08T01:58:08;31.70;;;15.52;;
29344;SDS011;16339;48.748;2.222;2023-05-08T02:00:38;26.75;;;15.25;;
29344;SDS011;16339;48.748;2.222;2023-05-08T02:03:11;22.15;;;13.50;;
29344;SDS011;16339;48.748;2.222;2023-05-08T02:05:41;22.50;;;14.70;;
29344;SDS011;16339;48.748;2.222;2023-05-08T02:08:11;22.27;;;14.32;;
29344;SDS011;16339;48.748;2.222;2023-05-08T02:10:42;28.17;;;17.10;;
29344;SDS011;16339;48.748;2.222;2023-05-08T02:13:12;35.60;;;17.67;;
29344;SDS011;16339;48.748;2.222;2023-05-08T02:15:43;33.22;;;18.17;;
29344;SDS011;16339;48.748;2.222;2023-05-08T02:18:17;29.98;;;18.33;;
29344;SDS011;16339;48.748;2.222;2023-05-08T02:20:49;32.42;;;19.20;;
29344;SDS011;16339;48.748;2.222;2023-05-08T02:23:21;34.05;;;19.40;;
29344;SDS011;16339;48.748;2.222;2023-05-08T02:25:51;36.85;;;19.50;;
29344;SDS011;16339;48.748;2.222;2023-05-08T02:28:21;49.80;;;24.23;;
29344;SDS011;16339;48.748;2.222;2023-05-08T02:30:51;43.28;;;23.83;;
29344;SDS011;16339;48.748;2.222;2023-05-08T02:33:23;42.83;;;23.27;;
29344;SDS011;16339;48.748;2.222;2023-05-08T02:35:53;53.00;;;23.88;;
29344;SDS011;16339;48.748;2.222;2023-05-08T02:38:23;62.03;;;26.58;;
29344;SDS011;16339;48.748;2.222;2023-05-08T02:40:54;62.65;;;27.55;;
29344;SDS011;16339;48.748;2.222;2023-05-08T02:43:27;51.13;;;24.27;;
29344;SDS011;16339;48.748;2.222;2023-05-08T02:45:58;54.15;;;25.63;;
29344;SDS011;16339;48.748;2.222;2023-05-08T02:48:40;53.75;;;25.70;;
29344;SDS011;16339;48.748;2.222;2023-05-08T02:51:20;53.95;;;25.73;;
29344;SDS011;16339;48.748;2.222;2023-05-08T02:53:53;57.78;;;25.73;;
29344;SDS011;16339;48.748;2.222;2023-05-08T02:56:29;57.25;;;25.83;;
29344;SDS011;16339;48.748;2.222;2023-05-08T02:59:11;97.57;;;27.90;;
29344;SDS011;16339;48.748;2.222;2023-05-08T03:01:46;96.53;;;27.90;;
29344;SDS011;16339;48.748;2.222;2023-05-08T03:04:24;68.90;;;28.20;;
29344;SDS011;16339;48.748;2.222;2023-05-08T03:06:57;57.78;;;26.55;;
29344;SDS011;16339;48.748;2.222;2023-05-08T03:09:30;69.63;;;28.43;;
29344;SDS011;16339;48.748;2.222;2023-05-08T03:12:08;77.63;;;29.20;;
29344;SDS011;16339;48.748;2.222;2023-05-08T03:14:42;68.07;;;28.25;;
29344;SDS011;16339;48.748;2.222;2023-05-08T03:17:19;62.85;;;27.45;;
29344;SDS011;16339;48.748;2.222;2023-05-08T03:19:53;85.45;;;28.38;;
29344;SDS011;16339;48.748;2.222;2023-05-08T03:22:25;61.83;;;28.55;;
29344;SDS011;16339;48.748;2.222;2023-05-08T03:24:57;97.38;;;30.70;;
29344;SDS011;16339;48.748;2.222;2023-05-08T03:27:28;67.07;;;29.23;;
29344;SDS011;16339;48.748;2.222;2023-05-08T03:29:57;67.63;;;30.10;;
29344;SDS011;16339;48.748;2.222;2023-05-08T03:35:01;62.45;;;28.20;;
29344;SDS011;16339;48.748;2.222;2023-05-08T03:37:32;69.47;;;30.35;;
29344;SDS011;16339;48.748;2.222;2023-05-08T03:40:01;66.65;;;29.02;;
29344;SDS011;16339;48.748;2.222;2023-05-08T03:42:30;56.45;;;26.63;;
29344;SDS011;16339;48.748;2.222;2023-05-08T03:44:59;57.30;;;27.63;;
29344;SDS011;16339;48.748;2.222;2023-05-08T03:47:30;68.85;;;29.38;;
29344;SDS011;16339;48.748;2.222;2023-05-08T03:50:03;60.15;;;28.20;;
29344;SDS011;16339;48.748;2.222;2023-05-08T03:52:32;63.63;;;28.15;;
29344;SDS011;16339;48.748;2.222;2023-05-08T03:55:01;58.03;;;28.77;;
29344;SDS011;16339;48.748;2.222;2023-05-08T03:57:33;60.75;;;27.90;;
29344;SDS011;16339;48.748;2.222;2023-05-08T04:00:06;52.55;;;26.05;;
29344;SDS011;16339;48.748;2.222;2023-05-08T04:02:43;56.25;;;26.05;;
29344;SDS011;16339;48.748;2.222;2023-05-08T04:05:20;60.75;;;25.90;;
29344;SDS011;16339;48.748;2.222;2023-05-08T04:08:00;63.72;;;26.77;;
29344;SDS011;16339;48.748;2.222;2023-05-08T04:10:36;68.32;;;27.65;;
29344;SDS011;16339;48.748;2.222;2023-05-08T04:13:09;67.82;;;27.00;;
29344;SDS011;16339;48.748;2.222;2023-05-08T04:15:43;59.75;;;27.65;;
29344;SDS011;16339;48.748;2.222;2023-05-08T04:18:17;65.65;;;28.27;;
29344;SDS011;16339;48.748;2.222;2023-05-08T04:20:55;61.13;;;26.35;;
29344;SDS011;16339;48.748;2.222;2023-05-08T04:23:24;60.22;;;26.95;;
29344;SDS011;16339;48.748;2.222;2023-05-08T04:25:55;65.55;;;27.80;;
29344;SDS011;16339;48.748;2.222;2023-05-08T04:28:26;55.83;;;25.80;;
29344;SDS011;16339;48.748;2.222;2023-05-08T04:30:56;58.80;;;27.08;;
29344;SDS011;16339;48.748;2.222;2023-05-08T04:33:25;67.55;;;28.73;;
29344;SDS011;16339;48.748;2.222;2023-05-08T04:35:59;58.30;;;27.23;;
29344;SDS011;16339;48.748;2.222;2023-05-08T04:38:28;53.53;;;24.83;;
29344;SDS011;16339;48.748;2.222;2023-05-08T04:40:57;60.53;;;26.48;;
29344;SDS011;16339;48.748;2.222;2023-05-08T04:43:25;60.22;;;25.75;;
29344;SDS011;16339;48.748;2.222;2023-05-08T04:45:54;63.30;;;27.05;;
29344;SDS011;16339;48.748;2.222;2023-05-08T04:48:23;64.55;;;28.55;;
29344;SDS011;16339;48.748;2.222;2023-05-08T04:50:52;59.13;;;27.10;;
29344;SDS011;16339;48.748;2.222;2023-05-08T04:53:23;69.95;;;28.95;;
29344;SDS011;16339;48.748;2.222;2023-05-08T04:55:52;64.85;;;27.50;;
29344;SDS011;16339;48.748;2.222;2023-05-08T04:58:21;65.10;;;27.90;;
29344;SDS011;16339;48.748;2.222;2023-05-08T05:00:50;55.08;;;27.13;;
29344;SDS011;16339;48.748;2.222;2023-05-08T05:03:19;63.20;;;28.45;;
29344;SDS011;16339;48.748;2.222;2023-05-08T05:05:47;64.63;;;28.85;;
29344;SDS011;16339;48.748;2.222;2023-05-08T05:08:16;68.00;;;29.83;;
29344;SDS011;16339;48.748;2.222;2023-05-08T05:10:47;62.90;;;28.75;;
29344;SDS011;16339;48.748;2.222;2023-05-08T05:13:16;61.80;;;28.67;;
29344;SDS011;16339;48.748;2.222;2023-05-08T05:15:45;59.78;;;27.00;;
29344;SDS011;16339;48.748;2.222;2023-05-08T05:18:15;58.45;;;26.98;;
29344;SDS011;16339;48.748;2.222;2023-05-08T05:20:44;64.45;;;27.85;;
29344;SDS011;16339;48.748;2.222;2023-05-08T05:23:13;58.00;;;27.25;;
29344;SDS011;16339;48.748;2.222;2023-05-08T05:25:41;54.72;;;27.73;;
29344;SDS011;16339;48.748;2.222;2023-05-08T05:28:13;47.67;;;24.38;;
29344;SDS011;16339;48.748;2.222;2023-05-08T05:30:41;51.67;;;24.30;;
29344;SDS011;16339;48.748;2.222;2023-05-08T05:33:13;52.95;;;25.58;;
29344;SDS011;16339;48.748;2.222;2023-05-08T05:35:42;57.03;;;26.60;;
29344;SDS011;16339;48.748;2.222;2023-05-08T05:38:10;50.25;;;24.10;;
29344;SDS011;16339;48.748;2.222;2023-05-08T05:40:39;51.92;;;25.10;;
29344;SDS011;16339;48.748;2.222;2023-05-08T05:43:08;48.92;;;25.08;;
29344;SDS011;16339;48.748;2.222;2023-05-08T05:45:39;45.95;;;23.38;;
29344;SDS011;16339;48.748;2.222;2023-05-08T05:48:08;55.75;;;26.23;;
29344;SDS011;16339;48.748;2.222;2023-05-08T05:50:36;52.17;;;25.73;;
29344;SDS011;16339;48.748;2.222;2023-05-08T05:53:05;49.00;;;24.20;;
29344;SDS011;16339;48.748;2.222;2023-05-08T05:55:34;46.42;;;23.60;;
29344;SDS011;16339;48.748;2.222;2023-05-08T05:58:03;51.63;;;23.55;;
29344;SDS011;16339;48.748;2.222;2023-05-08T06:00:31;41.08;;;22.23;;
29344;SDS011;16339;48.748;2.222;2023-05-08T06:03:03;49.40;;;23.00;;
29344;SDS011;16339;48.748;2.222;2023-05-08T06:08:00;41.67;;;22.10;;
29344;SDS011;16339;48.748;2.222;2023-05-08T06:10:29;55.55;;;24.73;;
29344;SDS011;16339;48.748;2.222;2023-05-08T06:12:58;53.97;;;24.90;;
29344;SDS011;16339;48.748;2.222;2023-05-08T06:15:27;46.80;;;22.75;;
29344;SDS011;16339;48.748;2.222;2023-05-08T06:17:56;41.75;;;22.90;;
29344;SDS011;16339;48.748;2.222;2023-05-08T06:20:27;44.00;;;21.52;;
29344;SDS011;16339;48.748;2.222;2023-05-08T06:22:56;39.05;;;20.33;;
29344;SDS011;16339;48.748;2.222;2023-05-08T06:25:25;42.80;;;21.25;;
29344;SDS011;16339;48.748;2.222;2023-05-08T06:27:53;43.47;;;20.85;;
29344;SDS011;16339;48.748;2.222;2023-05-08T06:30:22;40.00;;;21.42;;
29344;SDS011;16339;48.748;2.222;2023-05-08T06:32:51;42.85;;;21.70;;
29344;SDS011;16339;48.748;2.222;2023-05-08T06:35:20;39.78;;;21.38;;
29344;SDS011;16339;48.748;2.222;2023-05-08T06:37:52;43.60;;;19.85;;
29344;SDS011;16339;48.748;2.222;2023-05-08T06:40:20;37.00;;;19.63;;
29344;SDS011;16339;48.748;2.222;2023-05-08T06:42:50;37.92;;;19.92;;
29344;SDS011;16339;48.748;2.222;2023-05-08T06:45:19;37.35;;;19.88;;
29344;SDS011;16339;48.748;2.222;2023-05-08T06:47:48;43.28;;;20.65;;
29344;SDS011;16339;48.748;2.222;2023-05-08T06:50:16;44.10;;;22.15;;
29344;SDS011;16339;48.748;2.222;2023-05-08T06:52:45;38.20;;;20.52;;
29344;SDS011;16339;48.748;2.222;2023-05-08T06:55:16;37.58;;;19.83;;
29344;SDS011;16339;48.748;2.222;2023-05-08T07:00:14;32.92;;;17.83;;
29344;SDS011;16339;48.748;2.222;2023-05-08T07:02:43;36.70;;;18.50;;
29344;SDS011;16339;48.748;2.222;2023-05-08T07:05:11;34.80;;;18.23;;
29344;SDS011;16339;48.748;2.222;2023-05-08T07:07:40;39.90;;;19.45;;
29344;SDS011;16339;48.748;2.222;2023-05-08T07:10:09;33.58;;;18.02;;
29344;SDS011;16339;48.748;2.222;2023-05-08T07:12:41;35.88;;;16.85;;
29344;SDS011;16339;48.748;2.222;2023-05-08T07:15:10;31.30;;;16.67;;
29344;SDS011;16339;48.748;2.222;2023-05-08T07:17:39;33.70;;;16.83;;
29344;SDS011;16339;48.748;2.222;2023-05-08T07:20:08;35.08;;;17.17;;
29344;SDS011;16339;48.748;2.222;2023-05-08T07:22:37;33.88;;;18.05;;
29344;SDS011;16339;48.748;2.222;2023-05-08T07:25:06;37.78;;;17.58;;
29344;SDS011;16339;48.748;2.222;2023-05-08T07:27:36;30.20;;;16.48;;
29344;SDS011;16339;48.748;2.222;2023-05-08T07:30:08;28.58;;;14.98;;
29344;SDS011;16339;48.748;2.222;2023-05-08T07:32:37;25.30;;;12.95;;
29344;SDS011;16339;48.748;2.222;2023-05-08T07:35:07;26.40;;;14.35;;
29344;SDS011;16339;48.748;2.222;2023-05-08T07:37:36;22.52;;;12.98;;
29344;SDS011;16339;48.748;2.222;2023-05-08T07:40:06;27.42;;;12.75;;
29344;SDS011;16339;48.748;2.222;2023-05-08T07:42:39;24.70;;;13.43;;
29344;SDS011;16339;48.748;2.222;2023-05-08T07:45:11;23.48;;;12.18;;
29344;SDS011;16339;48.748;2.222;2023-05-08T07:47:47;22.75;;;12.50;;
29344;SDS011;16339;48.748;2.222;2023-05-08T07:50:16;22.67;;;13.23;;
29344;SDS011;16339;48.748;2.222;2023-05-08T07:52:44;25.35;;;13.20;;
29344;SDS011;16339;48.748;2.222;2023-05-08T07:55:13;21.38;;;11.90;;
29344;SDS011;16339;48.748;2.222;2023-05-08T07:57:42;25.33;;;11.93;;
29344;SDS011;16339;48.748;2.222;2023-05-08T08:00:14;22.05;;;11.43;;
29344;SDS011;16339;48.748;2.222;2023-05-08T08:02:44;18.23;;;10.65;;
29344;SDS011;16339;48.748;2.222;2023-05-08T08:05:13;19.35;;;10.15;;
29344;SDS011;16339;48.748;2.222;2023-05-08T08:07:42;17.25;;;9.63;;
29344;SDS011;16339;48.748;2.222;2023-05-08T08:10:10;19.55;;;10.05;;
29344;SDS011;16339;48.748;2.222;2023-05-08T08:12:39;17.42;;;9.20;;
29344;SDS011;16339;48.748;2.222;2023-05-08T08:15:08;17.08;;;9.48;;
29344;SDS011;16339;48.748;2.222;2023-05-08T08:17:40;16.27;;;9.60;;
29344;SDS011;16339;48.748;2.222;2023-05-08T08:20:09;18.13;;;9.27;;
29344;SDS011;16339;48.748;2.222;2023-05-08T08:22:38;14.27;;;8.00;;
29344;SDS011;16339;48.748;2.222;2023-05-08T08:25:07;19.17;;;8.43;;
29344;SDS011;16339;48.748;2.222;2023-05-08T08:27:36;14.13;;;8.55;;
29344;SDS011;16339;48.748;2.222;2023-05-08T08:30:06;12.93;;;8.25;;
29344;SDS011;16339;48.748;2.222;2023-05-08T08:32:35;15.32;;;8.45;;
29344;SDS011;16339;48.748;2.222;2023-05-08T08:35:07;17.52;;;8.80;;
29344;SDS011;16339;48.748;2.222;2023-05-08T08:37:36;17.85;;;8.18;;
29344;SDS011;16339;48.748;2.222;2023-05-08T08:40:06;17.90;;;8.13;;
29344;SDS011;16339;48.748;2.222;2023-05-08T08:42:35;12.82;;;8.63;;
29344;SDS011;16339;48.748;2.222;2023-05-08T08:45:05;19.20;;;9.57;;
29344;SDS011;16339;48.748;2.222;2023-05-08T08:47:35;16.63;;;9.23;;
29344;SDS011;16339;48.748;2.222;2023-05-08T08:59:28;19.83;;;10.23;;
29344;SDS011;16339;48.748;2.222;2023-05-08T09:02:00;23.38;;;10.18;;
29344;SDS011;16339;48.748;2.222;2023-05-08T09:04:35;20.15;;;10.13;;
29344;SDS011;16339;48.748;2.222;2023-05-08T09:07:05;18.45;;;9.25;;
29344;SDS011;16339;48.748;2.222;2023-05-08T09:09:46;16.48;;;8.93;;
29344;SDS011;16339;48.748;2.222;2023-05-08T09:12:18;18.48;;;8.07;;
29344;SDS011;16339;48.748;2.222;2023-05-08T09:14:47;18.10;;;8.57;;
29344;SDS011;16339;48.748;2.222;2023-05-08T09:17:20;17.70;;;8.77;;
29344;SDS011;16339;48.748;2.222;2023-05-08T09:19:53;24.65;;;8.38;;
29344;SDS011;16339;48.748;2.222;2023-05-08T09:22:38;16.30;;;7.15;;
29344;SDS011;16339;48.748;2.222;2023-05-08T09:28:16;12.77;;;5.57;;
29344;SDS011;16339;48.748;2.222;2023-05-08T09:30:53;16.92;;;5.63;;
29344;SDS011;16339;48.748;2.222;2023-05-08T09:33:27;15.95;;;5.60;;
29344;SDS011;16339;48.748;2.222;2023-05-08T09:35:59;16.95;;;5.95;;
29344;SDS011;16339;48.748;2.222;2023-05-08T09:38:37;11.38;;;5.03;;
29344;SDS011;16339;48.748;2.222;2023-05-08T09:41:11;18.10;;;5.28;;
29344;SDS011;16339;48.748;2.222;2023-05-08T09:43:44;11.77;;;6.55;;
29344;SDS011;16339;48.748;2.222;2023-05-08T09:46:35;16.90;;;6.00;;
29344;SDS011;16339;48.748;2.222;2023-05-08T09:49:24;13.23;;;5.70;;
29344;SDS011;16339;48.748;2.222;2023-05-08T09:51:56;15.95;;;5.90;;
29344;SDS011;16339;48.748;2.222;2023-05-08T09:54:25;15.60;;;6.07;;
29344;SDS011;16339;48.748;2.222;2023-05-08T09:56:56;12.63;;;5.70;;
29344;SDS011;16339;48.748;2.222;2023-05-08T09:59:27;12.32;;;5.40;;
29344;SDS011;16339;48.748;2.222;2023-05-08T10:01:56;16.33;;;5.13;;
29344;SDS011;16339;48.748;2.222;2023-05-08T10:04:31;16.42;;;5.72;;
29344;SDS011;16339;48.748;2.222;2023-05-08T10:07:01;11.85;;;4.95;;
29344;SDS011;16339;48.748;2.222;2023-05-08T10:09:32;13.23;;;5.10;;
29344;SDS011;16339;48.748;2.222;2023-05-08T10:12:03;13.02;;;4.85;;
29344;SDS011;16339;48.748;2.222;2023-05-08T10:14:36;10.20;;;4.38;;
29344;SDS011;16339;48.748;2.222;2023-05-08T10:17:07;8.55;;;4.25;;
29344;SDS011;16339;48.748;2.222;2023-05-08T10:19:40;12.05;;;5.88;;
29344;SDS011;16339;48.748;2.222;2023-05-08T10:22:17;13.80;;;5.13;;
29344;SDS011;16339;48.748;2.222;2023-05-08T10:24:46;10.85;;;4.55;;
29344;SDS011;16339;48.748;2.222;2023-05-08T10:27:25;9.07;;;4.35;;
29344;SDS011;16339;48.748;2.222;2023-05-08T10:30:00;14.50;;;4.90;;
29344;SDS011;16339;48.748;2.222;2023-05-08T10:32:33;10.73;;;4.60;;
29344;SDS011;16339;48.748;2.222;2023-05-08T10:35:07;9.80;;;5.03;;
29344;SDS011;16339;48.748;2.222;2023-05-08T10:37:38;14.82;;;5.15;;
29344;SDS011;16339;48.748;2.222;2023-05-08T10:40:09;11.75;;;4.80;;
29344;SDS011;16339;48.748;2.222;2023-05-08T10:42:43;14.52;;;6.05;;
29344;SDS011;16339;48.748;2.222;2023-05-08T10:45:12;11.02;;;5.18;;
29344;SDS011;16339;48.748;2.222;2023-05-08T10:47:44;11.10;;;5.15;;
29344;SDS011;16339;48.748;2.222;2023-05-08T10:50:21;12.82;;;5.22;;
29344;SDS011;16339;48.748;2.222;2023-05-08T10:53:04;8.63;;;4.63;;
29344;SDS011;16339;48.748;2.222;2023-05-08T10:55:38;7.53;;;4.43;;
29344;SDS011;16339;48.748;2.222;2023-05-08T10:58:27;10.93;;;4.95;;
29344;SDS011;16339;48.748;2.222;2023-05-08T11:03:56;8.50;;;4.55;;
29344;SDS011;16339;48.748;2.222;2023-05-08T11:09:19;13.52;;;4.93;;
29344;SDS011;16339;48.748;2.222;2023-05-08T11:11:51;6.95;;;4.63;;
29344;SDS011;16339;48.748;2.222;2023-05-08T11:14:42;12.63;;;4.80;;
29344;SDS011;16339;48.748;2.222;2023-05-08T11:17:21;7.40;;;4.07;;
29344;SDS011;16339;48.748;2.222;2023-05-08T11:19:54;9.10;;;4.25;;
29344;SDS011;16339;48.748;2.222;2023-05-08T11:22:25;10.20;;;5.00;;
29344;SDS011;16339;48.748;2.222;2023-05-08T11:24:57;11.27;;;5.05;;
29344;SDS011;16339;48.748;2.222;2023-05-08T11:30:38;8.38;;;4.45;;
29344;SDS011;16339;48.748;2.222;2023-05-08T11:33:13;8.57;;;4.38;;
29344;SDS011;16339;48.748;2.222;2023-05-08T11:35:44;8.60;;;4.32;;
29344;SDS011;16339;48.748;2.222;2023-05-08T11:38:17;10.75;;;4.65;;
29344;SDS011;16339;48.748;2.222;2023-05-08T11:40:48;12.45;;;4.85;;
29344;SDS011;16339;48.748;2.222;2023-05-08T11:43:26;10.10;;;4.72;;
29344;SDS011;16339;48.748;2.222;2023-05-08T11:46:12;11.45;;;4.65;;
29344;SDS011;16339;48.748;2.222;2023-05-08T11:48:41;8.05;;;4.07;;
29344;SDS011;16339;48.748;2.222;2023-05-08T11:51:11;11.80;;;4.45;;
29344;SDS011;16339;48.748;2.222;2023-05-08T11:53:40;11.75;;;4.90;;
29344;SDS011;16339;48.748;2.222;2023-05-08T11:56:11;11.57;;;5.57;;
29344;SDS011;16339;48.748;2.222;2023-05-08T11:58:40;9.55;;;4.22;;
29344;SDS011;16339;48.748;2.222;2023-05-08T12:01:11;6.60;;;4.28;;
29344;SDS011;16339;48.748;2.222;2023-05-08T12:03:46;9.48;;;4.50;;
29344;SDS011;16339;48.748;2.222;2023-05-08T12:06:15;13.75;;;3.97;;
29344;SDS011;16339;48.748;2.222;2023-05-08T12:08:47;6.97;;;3.95;;
29344;SDS011;16339;48.748;2.222;2023-05-08T12:11:21;10.65;;;3.97;;
29344;SDS011;16339;48.748;2.222;2023-05-08T12:13:50;7.05;;;4.22;;
29344;SDS011;16339;48.748;2.222;2023-05-08T12:16:24;8.27;;;3.35;;
29344;SDS011;16339;48.748;2.222;2023-05-08T12:18:55;9.85;;;4.72;;
29344;SDS011;16339;48.748;2.222;2023-05-08T12:21:24;9.10;;;3.95;;
29344;SDS011;16339;48.748;2.222;2023-05-08T12:23:55;9.15;;;3.97;;
29344;SDS011;16339;48.748;2.222;2023-05-08T12:26:24;10.38;;;4.35;;
29344;SDS011;16339;48.748;2.222;2023-05-08T12:28:54;5.40;;;3.63;;
29344;SDS011;16339;48.748;2.222;2023-05-08T12:31:28;8.20;;;3.22;;
29344;SDS011;16339;48.748;2.222;2023-05-08T12:33:57;7.47;;;3.00;;
29344;SDS011;16339;48.748;2.222;2023-05-08T12:36:26;4.38;;;2.80;;
29344;SDS011;16339;48.748;2.222;2023-05-08T12:39:07;4.15;;;2.80;;
29344;SDS011;16339;48.748;2.222;2023-05-08T12:41:40;3.97;;;2.60;;
29344;SDS011;16339;48.748;2.222;2023-05-08T12:44:16;4.32;;;2.50;;
29344;SDS011;16339;48.748;2.222;2023-05-08T12:46:52;4.35;;;2.92;;
29344;SDS011;16339;48.748;2.222;2023-05-08T12:49:22;6.32;;;3.05;;
29344;SDS011;16339;48.748;2.222;2023-05-08T12:54:30;4.38;;;2.83;;
29344;SDS011;16339;48.748;2.222;2023-05-08T12:57:02;5.43;;;3.13;;
29344;SDS011;16339;48.748;2.222;2023-05-08T12:59:36;6.10;;;3.00;;
29344;SDS011;16339;48.748;2.222;2023-05-08T13:02:13;5.78;;;3.25;;
29344;SDS011;16339;48.748;2.222;2023-05-08T13:04:42;8.18;;;3.70;;
29344;SDS011;16339;48.748;2.222;2023-05-08T13:07:12;8.43;;;3.50;;
29344;SDS011;16339;48.748;2.222;2023-05-08T13:09:55;5.60;;;3.33;;
29344;SDS011;16339;48.748;2.222;2023-05-08T13:12:25;5.97;;;3.55;;
29344;SDS011;16339;48.748;2.222;2023-05-08T13:14:56;4.00;;;3.30;;
29344;SDS011;16339;48.748;2.222;2023-05-08T13:17:27;7.63;;;3.60;;
29344;SDS011;16339;48.748;2.222;2023-05-08T13:22:24;6.22;;;3.10;;
29344;SDS011;16339;48.748;2.222;2023-05-08T13:24:53;6.03;;;3.00;;
29344;SDS011;16339;48.748;2.222;2023-05-08T13:27:22;5.55;;;2.88;;
29344;SDS011;16339;48.748;2.222;2023-05-08T13:29:51;5.90;;;2.90;;
29344;SDS011;16339;48.748;2.222;2023-05-08T13:32:19;2.88;;;2.42;;
29344;SDS011;16339;48.748;2.222;2023-05-08T13:34:51;4.53;;;2.40;;
29344;SDS011;16339;48.748;2.222;2023-05-08T13:39:48;2.90;;;2.20;;
29344;SDS011;16339;48.748;2.222;2023-05-08T13:42:16;4.78;;;2.05;;
29344;SDS011;16339;48.748;2.222;2023-05-08T13:44:45;4.18;;;2.40;;
29344;SDS011;16339;48.748;2.222;2023-05-08T13:47:14;3.22;;;2.22;;
29344;SDS011;16339;48.748;2.222;2023-05-08T13:49:43;5.30;;;2.38;;
29344;SDS011;16339;48.748;2.222;2023-05-08T13:52:15;3.55;;;2.05;;
29344;SDS011;16339;48.748;2.222;2023-05-08T13:57:12;4.78;;;2.60;;
29344;SDS011;16339;48.748;2.222;2023-05-08T13:59:41;3.58;;;2.30;;
29344;SDS011;16339;48.748;2.222;2023-05-08T14:02:10;3.13;;;2.20;;
29344;SDS011;16339;48.748;2.222;2023-05-08T14:04:38;3.88;;;2.30;;
29344;SDS011;16339;48.748;2.222;2023-05-08T14:07:07;4.38;;;2.05;;
29344;SDS011;16339;48.748;2.222;2023-05-08T14:09:39;5.85;;;2.08;;
29344;SDS011;16339;48.748;2.222;2023-05-08T14:14:36;7.63;;;1.70;;
29344;SDS011;16339;48.748;2.222;2023-05-08T14:17:05;3.85;;;1.75;;
29344;SDS011;16339;48.748;2.222;2023-05-08T14:19:34;3.42;;;1.73;;
29344;SDS011;16339;48.748;2.222;2023-05-08T14:22:03;2.80;;;1.77;;
29344;SDS011;16339;48.748;2.222;2023-05-08T14:24:32;2.10;;;1.90;;
29344;SDS011;16339;48.748;2.222;2023-05-08T14:27:03;4.35;;;2.05;;
29344;SDS011;16339;48.748;2.222;2023-05-08T14:29:32;5.57;;;1.83;;
29344;SDS011;16339;48.748;2.222;2023-05-08T14:32:01;3.22;;;1.90;;
29344;SDS011;16339;48.748;2.222;2023-05-08T14:34:30;7.03;;;2.08;;
29344;SDS011;16339;48.748;2.222;2023-05-08T14:36:59;3.45;;;1.65;;
29344;SDS011;16339;48.748;2.222;2023-05-08T14:39:27;1.95;;;1.65;;
29344;SDS011;16339;48.748;2.222;2023-05-08T14:41:56;2.60;;;1.88;;
29344;SDS011;16339;48.748;2.222;2023-05-08T14:44:28;3.00;;;2.00;;
29344;SDS011;16339;48.748;2.222;2023-05-08T14:49:25;8.57;;;1.95;;
29344;SDS011;16339;48.748;2.222;2023-05-08T14:51:53;3.97;;;1.95;;
29344;SDS011;16339;48.748;2.222;2023-05-08T14:54:22;2.65;;;2.00;;
29344;SDS011;16339;48.748;2.222;2023-05-08T14:56:51;3.30;;;1.75;;
29344;SDS011;16339;48.748;2.222;2023-05-08T14:59:20;4.65;;;2.03;;
29344;SDS011;16339;48.748;2.222;2023-05-08T15:01:51;2.88;;;1.60;;
29344;SDS011;16339;48.748;2.222;2023-05-08T15:06:48;6.15;;;2.33;;
29344;SDS011;16339;48.748;2.222;2023-05-08T15:09:17;5.53;;;2.22;;
29344;SDS011;16339;48.748;2.222;2023-05-08T15:11:45;3.70;;;1.90;;
29344;SDS011;16339;48.748;2.222;2023-05-08T15:14:14;4.15;;;1.98;;
29344;SDS011;16339;48.748;2.222;2023-05-08T15:16:43;6.82;;;2.22;;
29344;SDS011;16339;48.748;2.222;2023-05-08T15:19:14;6.85;;;2.20;;
29344;SDS011;16339;48.748;2.222;2023-05-08T15:21:43;4.15;;;2.13;;
29344;SDS011;16339;48.748;2.222;2023-05-08T15:24:12;5.13;;;2.22;;
29344;SDS011;16339;48.748;2.222;2023-05-08T15:26:40;6.30;;;1.92;;
29344;SDS011;16339;48.748;2.222;2023-05-08T15:29:09;5.55;;;2.33;;
29344;SDS011;16339;48.748;2.222;2023-05-08T15:31:38;4.50;;;1.80;;
29344;SDS011;16339;48.748;2.222;2023-05-08T15:34:06;6.97;;;2.40;;
29344;SDS011;16339;48.748;2.222;2023-05-08T15:36:38;4.80;;;2.30;;
29344;SDS011;16339;48.748;2.222;2023-05-08T15:41:35;6.05;;;2.50;;
29344;SDS011;16339;48.748;2.222;2023-05-08T15:44:05;3.95;;;2.30;;
29344;SDS011;16339;48.748;2.222;2023-05-08T15:46:33;5.05;;;2.60;;